Time;durP1;ratioP1;P1;durP2;ratioP2;P2;SDS_P1;SDS_P2;PMS_P1;PMS_P2;Temp;Humidity;BMP_temperature;BMP_pressure;BME280_temperature;BME280_humidity;BME280_pressure;Samples;Min_cycle;Max_cycle;Signal;HPM_P1;HPM_P2
2022/01/06 00:01:00;;;;;;;;;;;;;;;;;;5040081;28;20478;-58
2022/01/06 00:03:27;;;;;;;7.05;2.67;;;;;;;;;;5038724;28;19932;-56
2022/01/06 00:05:56;;;;;;;7.00;2.17;;;;;;;;;;5039677;28;20049;-59
2022/01/06 00:08:23;;;;;;;5.65;2.30;;;;;;;;;;5039482;28;20502;-58
2022/01/06 00:10:51;;;;;;;6.07;2.15;;;;;;;;;;5039295;28;20056;-57
2022/01/06 00:13:24;;;;;;;9.30;2.30;;;;;;;;;;5039215;28;20053;-60
2022/01/06 00:16:05;;;;;;;7.85;2.35;;;;;;;;;;5039581;28;20391;-57
2022/01/06 00:23:06;;;;;;;7.18;2.33;;;;;;;;;;5039419;28;20049;-59
2022/01/06 00:24:17;;;;;;;6.05;2.10;;;;;;;;;;5038867;28;20068;-60
2022/01/06 00:26:45;;;;;;;9.52;2.60;;;;;;;;;;5038334;28;20446;-59
2022/01/06 00:29:12;;;;;;;7.55;2.58;;;;;;;;;;5038779;28;20042;-60
2022/01/06 00:31:39;;;;;;;6.28;2.38;;;;;;;;;;5038877;28;20056;-60
2022/01/06 00:34:10;;;;;;;5.00;2.10;;;;;;;;;;5038661;28;20053;-59
2022/01/06 00:36:38;;;;;;;6.35;2.10;;;;;;;;;;5039090;28;20049;-59
2022/01/06 00:39:05;;;;;;;6.45;2.28;;;;;;;;;;5038813;28;20498;-58
2022/01/06 00:41:34;;;;;;;6.90;2.70;;;;;;;;;;5039026;28;20061;-60
2022/01/06 00:44:01;;;;;;;5.85;2.13;;;;;;;;;;5038412;28;20042;-59
2022/01/06 00:46:28;;;;;;;5.90;2.70;;;;;;;;;;5038538;28;20498;-59
2022/01/06 00:48:55;;;;;;;5.28;2.22;;;;;;;;;;5036255;28;20053;-60
2022/01/06 00:51:23;;;;;;;6.78;2.80;;;;;;;;;;5035642;28;20045;-59
2022/01/06 00:53:51;;;;;;;5.60;2.35;;;;;;;;;;5035221;28;20099;-58
2022/01/06 00:56:18;;;;;;;9.88;2.35;;;;;;;;;;5035163;28;20078;-58
2022/01/06 00:58:45;;;;;;;9.93;2.80;;;;;;;;;;5035376;28;20057;-58
2022/01/06 01:01:12;;;;;;;5.00;2.30;;;;;;;;;;5035764;28;20419;-55
2022/01/06 01:03:39;;;;;;;7.82;2.75;;;;;;;;;;5035430;28;20065;-59
2022/01/06 01:06:06;;;;;;;5.93;2.38;;;;;;;;;;5035267;28;20060;-59
2022/01/06 01:08:34;;;;;;;6.03;2.42;;;;;;;;;;5035171;28;20049;-59
2022/01/06 01:11:02;;;;;;;6.80;2.72;;;;;;;;;;5035132;28;20061;-55
2022/01/06 01:13:31;;;;;;;6.93;2.45;;;;;;;;;;5034575;28;20052;-59
2022/01/06 01:16:08;;;;;;;4.70;1.88;;;;;;;;;;5034944;28;20084;-55
2022/01/06 01:18:36;;;;;;;7.90;2.40;;;;;;;;;;5034748;28;20556;-58
2022/01/06 01:21:03;;;;;;;10.10;2.80;;;;;;;;;;5035783;28;20471;-60
2022/01/06 01:23:30;;;;;;;6.25;2.65;;;;;;;;;;5035027;28;20286;-58
2022/01/06 01:25:57;;;;;;;7.60;2.80;;;;;;;;;;5034905;28;20053;-60
2022/01/06 01:28:42;;;;;;;8.68;2.50;;;;;;;;;;5035206;28;20509;-60
2022/01/06 01:31:23;;;;;;;5.93;2.72;;;;;;;;;;5034599;28;20095;-60
2022/01/06 01:33:52;;;;;;;9.00;2.58;;;;;;;;;;5034565;28;20461;-58
2022/01/06 01:36:19;;;;;;;7.97;2.25;;;;;;;;;;5034686;28;20048;-59
2022/01/06 01:38:46;;;;;;;9.77;2.08;;;;;;;;;;5034629;28;20445;-57
2022/01/06 01:41:13;;;;;;;7.05;2.45;;;;;;;;;;5034313;28;20057;-59
2022/01/06 01:43:42;;;;;;;4.90;2.10;;;;;;;;;;5034615;28;20087;-55
2022/01/06 01:46:12;;;;;;;7.60;2.35;;;;;;;;;;5034392;28;20045;-59
2022/01/06 01:48:44;;;;;;;7.53;2.47;;;;;;;;;;5034447;28;20053;-57
2022/01/06 01:51:11;;;;;;;5.82;2.40;;;;;;;;;;5034483;28;20502;-59
2022/01/06 01:53:38;;;;;;;7.13;2.60;;;;;;;;;;5034206;28;20453;-56
2022/01/06 01:56:06;;;;;;;7.68;3.10;;;;;;;;;;5034474;28;20060;-58
2022/01/06 01:58:34;;;;;;;7.90;2.97;;;;;;;;;;5034139;28;20487;-59
2022/01/06 02:01:03;;;;;;;9.07;2.25;;;;;;;;;;5033689;28;20046;-58
2022/01/06 02:03:30;;;;;;;9.15;2.30;;;;;;;;;;5034144;28;20443;-58
2022/01/06 02:05:57;;;;;;;5.43;2.10;;;;;;;;;;5034102;28;20518;-58
2022/01/06 02:08:24;;;;;;;6.38;2.40;;;;;;;;;;5034035;28;20136;-56
2022/01/06 02:10:50;;;;;;;6.15;2.30;;;;;;;;;;5034049;28;20050;-61
2022/01/06 02:13:17;;;;;;;6.88;2.70;;;;;;;;;;5033278;28;20410;-61
2022/01/06 02:15:45;;;;;;;8.07;2.47;;;;;;;;;;5033215;28;20045;-57
2022/01/06 02:18:13;;;;;;;5.20;2.70;;;;;;;;;;5032789;28;20049;-59
2022/01/06 02:20:41;;;;;;;7.32;2.80;;;;;;;;;;5033201;28;20057;-60
2022/01/06 02:23:08;;;;;;;4.93;2.63;;;;;;;;;;5033002;28;20049;-60
2022/01/06 02:25:35;;;;;;;6.03;2.47;;;;;;;;;;5032893;28;20056;-59
2022/01/06 02:28:03;;;;;;;9.48;2.50;;;;;;;;;;5032889;28;20053;-60
2022/01/06 02:30:33;;;;;;;6.72;2.30;;;;;;;;;;5032673;28;20108;-61
2022/01/06 02:33:01;;;;;;;6.00;2.28;;;;;;;;;;5032999;28;20055;-59
2022/01/06 02:35:29;;;;;;;5.80;2.50;;;;;;;;;;5032830;28;20053;-60
2022/01/06 02:37:57;;;;;;;5.95;2.17;;;;;;;;;;5032494;28;20053;-60
2022/01/06 02:40:26;;;;;;;8.38;2.47;;;;;;;;;;5032748;28;20046;-60
2022/01/06 02:42:56;;;;;;;8.10;2.53;;;;;;;;;;5032454;28;20487;-60
2022/01/06 02:45:26;;;;;;;7.88;2.72;;;;;;;;;;5032811;28;20050;-60
2022/01/06 02:47:54;;;;;;;5.50;2.22;;;;;;;;;;5032445;28;20049;-59
2022/01/06 02:50:23;;;;;;;7.95;2.67;;;;;;;;;;5032411;28;20060;-60
2022/01/06 02:52:50;;;;;;;6.80;3.00;;;;;;;;;;5032299;28;20073;-58
2022/01/06 02:55:19;;;;;;;6.55;2.05;;;;;;;;;;5032371;28;20053;-62
2022/01/06 02:57:46;;;;;;;9.23;2.85;;;;;;;;;;5032538;28;20077;-63
2022/01/06 03:00:16;;;;;;;8.05;2.60;;;;;;;;;;5032396;28;20112;-61
2022/01/06 03:02:44;;;;;;;10.50;2.75;;;;;;;;;;5032386;28;20049;-60
2022/01/06 03:05:11;;;;;;;5.47;2.22;;;;;;;;;;5032965;28;20077;-61
2022/01/06 03:07:38;;;;;;;7.53;2.65;;;;;;;;;;5031884;28;20053;-60
2022/01/06 03:10:08;;;;;;;4.15;2.35;;;;;;;;;;5032368;28;20132;-61
2022/01/06 03:12:40;;;;;;;9.20;3.07;;;;;;;;;;5031858;28;20103;-60
2022/01/06 03:15:08;;;;;;;8.48;2.60;;;;;;;;;;5032298;28;20103;-61
2022/01/06 03:17:35;;;;;;;6.55;3.20;;;;;;;;;;5032245;28;20088;-55
2022/01/06 03:20:02;;;;;;;5.43;3.25;;;;;;;;;;5032408;28;20048;-59
2022/01/06 03:22:29;;;;;;;9.10;2.65;;;;;;;;;;5032370;28;20048;-61
2022/01/06 03:24:56;;;;;;;7.70;2.47;;;;;;;;;;5032208;28;20107;-58
2022/01/06 03:27:23;;;;;;;6.05;2.30;;;;;;;;;;5031850;28;20053;-58
2022/01/06 03:29:51;;;;;;;7.32;2.60;;;;;;;;;;5031979;28;20089;-60
2022/01/06 03:32:19;;;;;;;5.93;2.58;;;;;;;;;;5032306;28;20056;-60
2022/01/06 03:34:46;;;;;;;5.00;2.67;;;;;;;;;;5032078;28;20049;-61
2022/01/06 03:37:14;;;;;;;8.25;2.65;;;;;;;;;;5031602;28;20049;-60
2022/01/06 03:39:42;;;;;;;5.30;2.25;;;;;;;;;;5032062;28;20517;-61
2022/01/06 03:42:10;;;;;;;6.68;2.63;;;;;;;;;;5032389;28;20049;-60
2022/01/06 03:44:37;;;;;;;7.45;3.55;;;;;;;;;;5032433;28;20045;-58
2022/01/06 03:47:06;;;;;;;5.70;2.42;;;;;;;;;;5031567;28;20054;-60
2022/01/06 03:49:33;;;;;;;5.75;2.55;;;;;;;;;;5031805;28;20403;-61
2022/01/06 03:52:00;;;;;;;9.68;2.90;;;;;;;;;;5032047;28;20392;-61
2022/01/06 03:54:27;;;;;;;6.63;2.90;;;;;;;;;;5031927;28;20041;-60
2022/01/06 03:56:54;;;;;;;11.55;3.47;;;;;;;;;;5031666;28;20041;-58
2022/01/06 03:59:21;;;;;;;7.13;2.60;;;;;;;;;;5031773;28;20414;-60
2022/01/06 04:01:48;;;;;;;9.95;3.25;;;;;;;;;;5031764;28;20136;-60
2022/01/06 04:04:16;;;;;;;7.10;3.15;;;;;;;;;;5031771;28;20046;-59
2022/01/06 04:06:43;;;;;;;6.45;3.10;;;;;;;;;;5032054;28;20080;-60
2022/01/06 04:09:11;;;;;;;6.43;2.78;;;;;;;;;;5031711;28;20395;-59
2022/01/06 04:11:38;;;;;;;5.72;2.63;;;;;;;;;;5032239;28;20050;-59
2022/01/06 04:14:05;;;;;;;9.30;2.63;;;;;;;;;;5031969;28;20517;-60
2022/01/06 04:16:35;;;;;;;6.68;3.20;;;;;;;;;;5031346;28;20053;-60
2022/01/06 04:19:02;;;;;;;9.05;3.17;;;;;;;;;;5031561;28;20049;-58
2022/01/06 04:21:30;;;;;;;6.72;2.70;;;;;;;;;;5031873;28;20054;-60
2022/01/06 04:23:57;;;;;;;6.70;3.33;;;;;;;;;;5032135;28;20049;-59
2022/01/06 04:26:24;;;;;;;8.48;2.72;;;;;;;;;;5035361;28;20050;-61
2022/01/06 04:28:51;;;;;;;7.80;3.38;;;;;;;;;;5035169;28;20423;-61
2022/01/06 04:31:18;;;;;;;11.40;3.35;;;;;;;;;;5035140;28;20490;-60
2022/01/06 04:33:45;;;;;;;6.47;3.47;;;;;;;;;;5035301;28;20045;-60
2022/01/06 04:36:12;;;;;;;8.52;2.92;;;;;;;;;;5035111;28;20052;-59
2022/01/06 04:38:40;;;;;;;7.32;2.92;;;;;;;;;;5035470;28;20659;-57
2022/01/06 04:41:07;;;;;;;5.68;2.80;;;;;;;;;;5035249;28;20041;-60
2022/01/06 04:43:34;;;;;;;9.13;3.38;;;;;;;;;;5034844;28;20041;-59
2022/01/06 04:46:01;;;;;;;7.90;2.92;;;;;;;;;;5034888;28;20495;-61
2022/01/06 04:48:29;;;;;;;10.35;2.70;;;;;;;;;;5034823;28;20050;-59
2022/01/06 04:50:55;;;;;;;5.25;2.38;;;;;;;;;;5034980;28;20140;-59
2022/01/06 04:53:22;;;;;;;6.43;2.85;;;;;;;;;;5035025;28;20486;-60
2022/01/06 04:55:51;;;;;;;10.45;3.33;;;;;;;;;;5034772;28;20056;-61
2022/01/06 04:58:18;;;;;;;5.25;2.80;;;;;;;;;;5034549;28;20050;-61
2022/01/06 05:00:45;;;;;;;7.15;2.70;;;;;;;;;;5034695;28;20068;-61
2022/01/06 05:03:12;;;;;;;7.15;2.85;;;;;;;;;;5034716;28;20057;-60
2022/01/06 05:05:39;;;;;;;7.75;3.25;;;;;;;;;;5034950;28;20409;-61
2022/01/06 05:08:06;;;;;;;8.10;3.10;;;;;;;;;;5034800;28;20056;-60
2022/01/06 05:10:33;;;;;;;6.28;3.03;;;;;;;;;;5034572;28;20049;-57
2022/01/06 05:13:01;;;;;;;10.23;3.03;;;;;;;;;;5034510;28;20049;-59
2022/01/06 05:15:28;;;;;;;7.90;2.85;;;;;;;;;;5034557;28;20326;-58
2022/01/06 05:17:55;;;;;;;5.03;2.78;;;;;;;;;;5034873;28;20053;-59
2022/01/06 05:20:25;;;;;;;6.45;2.83;;;;;;;;;;5034367;28;20052;-59
2022/01/06 05:22:55;;;;;;;11.15;3.35;;;;;;;;;;5034703;28;20061;-61
2022/01/06 05:25:25;;;;;;;6.43;2.77;;;;;;;;;;5034152;28;20065;-59
2022/01/06 05:27:53;;;;;;;4.90;2.50;;;;;;;;;;5034270;28;20057;-61
2022/01/06 05:30:25;;;;;;;7.72;3.13;;;;;;;;;;5033987;28;20045;-60
2022/01/06 05:32:52;;;;;;;5.43;2.92;;;;;;;;;;5034262;28;20430;-60
2022/01/06 05:35:19;;;;;;;8.10;2.92;;;;;;;;;;5033593;28;20042;-60
2022/01/06 05:37:46;;;;;;;7.40;3.58;;;;;;;;;;5034321;28;20387;-58
2022/01/06 05:40:14;;;;;;;7.43;2.78;;;;;;;;;;5034003;28;20486;-59
2022/01/06 05:42:41;;;;;;;6.55;2.80;;;;;;;;;;5033907;28;20411;-60
2022/01/06 05:45:11;;;;;;;5.82;2.20;;;;;;;;;;5034179;28;20107;-60
2022/01/06 05:47:39;;;;;;;5.45;2.88;;;;;;;;;;5033865;28;20045;-60
2022/01/06 05:50:07;;;;;;;5.22;2.72;;;;;;;;;;5033708;28;20067;-59
2022/01/06 05:52:34;;;;;;;6.10;2.55;;;;;;;;;;5033619;28;20055;-60
2022/01/06 05:55:01;;;;;;;4.70;2.63;;;;;;;;;;5033654;28;20046;-59
2022/01/06 05:57:28;;;;;;;4.75;2.10;;;;;;;;;;5033562;28;20412;-59
2022/01/06 05:59:55;;;;;;;6.38;2.78;;;;;;;;;;5033733;28;20132;-60
2022/01/06 06:02:22;;;;;;;6.63;2.35;;;;;;;;;;5033638;28;20514;-62
2022/01/06 06:04:50;;;;;;;6.13;2.28;;;;;;;;;;5033472;28;20052;-61
2022/01/06 06:07:19;;;;;;;5.95;2.65;;;;;;;;;;5033963;28;20506;-59
2022/01/06 06:09:46;;;;;;;6.22;2.40;;;;;;;;;;5033461;28;20049;-61
2022/01/06 06:12:13;;;;;;;5.05;2.17;;;;;;;;;;5033328;28;20406;-59
2022/01/06 06:14:40;;;;;;;7.50;2.63;;;;;;;;;;5033248;28;20052;-59
2022/01/06 06:17:07;;;;;;;5.00;2.40;;;;;;;;;;5033013;28;20491;-59
2022/01/06 06:19:34;;;;;;;4.32;2.28;;;;;;;;;;5033305;28;20056;-60
2022/01/06 06:22:03;;;;;;;7.82;2.55;;;;;;;;;;5033152;28;20141;-62
2022/01/06 06:24:30;;;;;;;4.78;2.10;;;;;;;;;;5033224;28;20060;-60
2022/01/06 06:26:57;;;;;;;5.03;1.90;;;;;;;;;;5033123;28;20050;-58
2022/01/06 06:29:24;;;;;;;4.20;2.13;;;;;;;;;;5033138;28;20053;-59
2022/01/06 06:31:50;;;;;;;3.90;2.00;;;;;;;;;;5033116;28;20045;-59
2022/01/06 06:34:17;;;;;;;5.00;2.40;;;;;;;;;;5033007;28;20440;-59
2022/01/06 06:36:44;;;;;;;3.80;1.80;;;;;;;;;;5033668;28;20474;-60
2022/01/06 06:39:13;;;;;;;4.43;1.67;;;;;;;;;;5033012;28;20046;-61
2022/01/06 06:41:40;;;;;;;4.10;2.03;;;;;;;;;;5033011;28;20103;-61
2022/01/06 06:44:07;;;;;;;3.30;1.83;;;;;;;;;;5033238;28;20068;-61
2022/01/06 06:46:34;;;;;;;4.35;1.50;;;;;;;;;;5032162;28;20046;-60
2022/01/06 06:49:01;;;;;;;4.55;1.80;;;;;;;;;;5032801;28;20053;-61
2022/01/06 06:51:28;;;;;;;3.63;1.80;;;;;;;;;;5032923;28;20060;-60
2022/01/06 06:53:55;;;;;;;4.68;1.92;;;;;;;;;;5033071;28;20100;-62
2022/01/06 06:56:23;;;;;;;6.15;2.10;;;;;;;;;;5032687;28;20045;-61
2022/01/06 06:58:50;;;;;;;3.92;1.85;;;;;;;;;;5032443;28;20041;-61
2022/01/06 07:01:17;;;;;;;4.63;1.92;;;;;;;;;;5032445;28;20046;-60
2022/01/06 07:03:44;;;;;;;3.70;1.80;;;;;;;;;;5032414;28;20472;-60
2022/01/06 07:06:11;;;;;;;4.40;1.85;;;;;;;;;;5032486;28;20379;-60
2022/01/06 07:08:38;;;;;;;3.83;2.10;;;;;;;;;;5032310;28;20049;-61
2022/01/06 07:11:05;;;;;;;5.45;2.08;;;;;;;;;;5032323;28;20060;-58
2022/01/06 07:13:33;;;;;;;5.00;2.20;;;;;;;;;;5032500;28;20482;-60
2022/01/06 07:16:00;;;;;;;4.05;2.00;;;;;;;;;;5032783;28;20045;-58
2022/01/06 07:18:27;;;;;;;3.70;1.83;;;;;;;;;;5032420;28;20045;-60
2022/01/06 07:20:54;;;;;;;6.60;2.05;;;;;;;;;;5032302;28;20053;-61
2022/01/06 07:23:20;;;;;;;4.63;2.15;;;;;;;;;;5032308;28;20052;-59
2022/01/06 07:25:47;;;;;;;5.82;1.95;;;;;;;;;;5032365;28;20054;-60
2022/01/06 07:28:14;;;;;;;3.83;1.63;;;;;;;;;;5032065;28;20045;-60
2022/01/06 07:30:42;;;;;;;5.15;2.00;;;;;;;;;;5032657;28;20056;-60
2022/01/06 07:33:09;;;;;;;4.88;2.03;;;;;;;;;;5032096;28;20487;-60
2022/01/06 07:35:36;;;;;;;4.43;1.85;;;;;;;;;;5032155;28;20056;-60
2022/01/06 07:38:03;;;;;;;5.70;2.00;;;;;;;;;;5031938;28;20518;-61
2022/01/06 07:40:30;;;;;;;5.03;2.30;;;;;;;;;;5032191;28;20053;-60
2022/01/06 07:42:58;;;;;;;3.45;1.80;;;;;;;;;;5032161;28;20046;-56
2022/01/06 07:45:24;;;;;;;5.85;1.80;;;;;;;;;;5031979;28;20045;-59
2022/01/06 07:47:57;;;;;;;6.13;2.08;;;;;;;;;;5031980;28;20056;-60
2022/01/06 07:50:26;;;;;;;3.83;1.90;;;;;;;;;;5032211;28;20057;-61
2022/01/06 07:52:53;;;;;;;4.15;1.63;;;;;;;;;;5032210;28;20049;-54
2022/01/06 07:55:20;;;;;;;3.95;1.50;;;;;;;;;;5032041;28;20049;-60
2022/01/06 07:57:47;;;;;;;4.97;2.10;;;;;;;;;;5032305;28;20045;-57
2022/01/06 08:00:15;;;;;;;5.85;2.47;;;;;;;;;;5035955;28;20053;-60
2022/01/06 08:02:42;;;;;;;4.18;1.70;;;;;;;;;;5035685;28;20060;-61
2022/01/06 08:05:12;;;;;;;4.28;1.55;;;;;;;;;;5036268;28;20123;-59
2022/01/06 08:07:40;;;;;;;5.20;2.00;;;;;;;;;;5035905;28;20494;-59
2022/01/06 08:10:09;;;;;;;4.00;1.75;;;;;;;;;;5035819;28;20045;-60
2022/01/06 08:12:37;;;;;;;3.85;1.83;;;;;;;;;;5035762;28;20403;-60
2022/01/06 08:15:04;;;;;;;3.80;1.65;;;;;;;;;;5035494;28;20049;-59
2022/01/06 08:17:31;;;;;;;3.80;1.90;;;;;;;;;;5035537;28;20056;-60
2022/01/06 08:19:58;;;;;;;4.93;1.83;;;;;;;;;;5035530;28;20049;-61
2022/01/06 08:22:26;;;;;;;4.55;1.90;;;;;;;;;;5035861;28;20487;-61
2022/01/06 08:24:53;;;;;;;4.28;2.10;;;;;;;;;;5035515;28;20045;-60
2022/01/06 08:27:23;;;;;;;4.20;2.33;;;;;;;;;;5035591;28;20080;-58
2022/01/06 08:29:51;;;;;;;5.78;2.35;;;;;;;;;;5035512;28;20131;-57
2022/01/06 08:32:18;;;;;;;4.97;2.30;;;;;;;;;;5035728;28;20491;-61
2022/01/06 08:34:45;;;;;;;4.93;1.83;;;;;;;;;;5035245;28;20414;-59
2022/01/06 08:37:13;;;;;;;4.40;2.00;;;;;;;;;;5035329;28;20517;-61
2022/01/06 08:39:41;;;;;;;4.35;1.90;;;;;;;;;;5035066;28;20042;-61
2022/01/06 08:42:08;;;;;;;5.65;2.47;;;;;;;;;;5035350;28;20052;-58
2022/01/06 08:44:39;;;;;;;5.25;2.17;;;;;;;;;;5035124;28;20049;-60
2022/01/06 08:47:06;;;;;;;5.53;2.20;;;;;;;;;;5035406;28;20053;-60
2022/01/06 08:49:35;;;;;;;3.42;1.98;;;;;;;;;;5035114;28;20049;-59
2022/01/06 08:52:02;;;;;;;4.00;2.20;;;;;;;;;;5035445;28;20164;-58
2022/01/06 08:54:29;;;;;;;3.58;1.83;;;;;;;;;;5034945;28;20049;-60
2022/01/06 08:56:57;;;;;;;5.93;2.15;;;;;;;;;;5035055;28;20049;-61
2022/01/06 08:59:24;;;;;;;4.38;2.15;;;;;;;;;;5035179;28;20486;-60
2022/01/06 09:01:51;;;;;;;4.75;2.38;;;;;;;;;;5034935;28;20407;-60
2022/01/06 09:04:20;;;;;;;5.35;2.13;;;;;;;;;;5034621;28;20046;-60
2022/01/06 09:06:48;;;;;;;4.15;2.40;;;;;;;;;;5034486;28;20132;-61
2022/01/06 09:09:15;;;;;;;4.97;2.05;;;;;;;;;;5034244;28;20053;-63
2022/01/06 09:11:42;;;;;;;5.38;2.17;;;;;;;;;;5034156;28;20041;-62
2022/01/06 09:14:11;;;;;;;6.63;2.33;;;;;;;;;;5034466;28;20092;-61
2022/01/06 09:16:38;;;;;;;5.78;2.45;;;;;;;;;;5034371;28;20068;-61
2022/01/06 09:19:06;;;;;;;4.13;2.10;;;;;;;;;;5034422;28;20495;-59
2022/01/06 09:21:33;;;;;;;5.78;2.45;;;;;;;;;;5034395;28;20076;-61
2022/01/06 09:24:01;;;;;;;5.88;2.50;;;;;;;;;;5034576;28;20045;-60
2022/01/06 09:26:29;;;;;;;5.90;2.50;;;;;;;;;;5034222;28;20146;-61
2022/01/06 09:28:57;;;;;;;6.00;2.72;;;;;;;;;;5034166;28;20514;-61
2022/01/06 09:31:25;;;;;;;4.80;2.70;;;;;;;;;;5034388;28;20103;-61
2022/01/06 09:33:52;;;;;;;4.47;2.33;;;;;;;;;;5034242;28;20084;-61
2022/01/06 09:36:19;;;;;;;5.25;2.40;;;;;;;;;;5033939;28;20045;-60
2022/01/06 09:38:46;;;;;;;7.07;2.45;;;;;;;;;;5034070;28;20056;-59
2022/01/06 09:41:14;;;;;;;6.00;2.63;;;;;;;;;;5034266;28;20041;-61
2022/01/06 09:43:43;;;;;;;5.20;2.53;;;;;;;;;;5034263;28;20473;-62
2022/01/06 09:46:11;;;;;;;5.75;2.58;;;;;;;;;;5034207;28;20514;-60
2022/01/06 09:48:40;;;;;;;4.97;2.55;;;;;;;;;;5033939;28;20046;-61
2022/01/06 09:51:09;;;;;;;4.75;2.70;;;;;;;;;;5033860;28;20487;-62
2022/01/06 09:53:36;;;;;;;6.28;3.03;;;;;;;;;;5033860;28;20057;-60
2022/01/06 09:56:03;;;;;;;4.88;2.72;;;;;;;;;;5033710;28;20053;-62
2022/01/06 09:58:30;;;;;;;5.43;2.72;;;;;;;;;;5033390;28;20050;-61
2022/01/06 10:00:58;;;;;;;9.05;3.53;;;;;;;;;;5033588;28;20049;-60
2022/01/06 10:03:35;;;;;;;6.20;2.85;;;;;;;;;;5033709;28;20099;-61
2022/01/06 10:06:15;;;;;;;8.55;3.50;;;;;;;;;;5033631;28;20483;-62
2022/01/06 10:08:44;;;;;;;8.93;3.28;;;;;;;;;;5033132;28;20046;-61
2022/01/06 10:11:12;;;;;;;5.88;2.80;;;;;;;;;;5033277;28;20060;-62
2022/01/06 10:13:40;;;;;;;6.68;3.22;;;;;;;;;;5033313;28;20045;-61
2022/01/06 10:16:18;;;;;;;6.40;2.85;;;;;;;;;;5033134;28;20053;-61
2022/01/06 10:19:12;;;;;;;6.60;3.20;;;;;;;;;;5033149;28;20052;-60
2022/01/06 10:21:44;;;;;;;7.93;3.75;;;;;;;;;;5020293;28;20056;-62
2022/01/06 10:24:12;;;;;;;6.82;3.30;;;;;;;;;;5033184;28;20560;-62
2022/01/06 10:26:52;;;;;;;6.57;3.10;;;;;;;;;;5032895;28;20054;-61
2022/01/06 10:29:19;;;;;;;5.70;2.95;;;;;;;;;;5033123;28;20053;-61
2022/01/06 10:31:47;;;;;;;6.57;3.63;;;;;;;;;;5032832;28;20050;-62
2022/01/06 10:34:14;;;;;;;7.28;3.13;;;;;;;;;;5032922;28;20053;-61
2022/01/06 10:36:43;;;;;;;6.45;3.33;;;;;;;;;;5032773;28;20050;-62
2022/01/06 10:39:10;;;;;;;7.47;3.40;;;;;;;;;;5033161;28;20049;-61
2022/01/06 10:41:39;;;;;;;7.07;3.35;;;;;;;;;;5032694;28;20042;-60
2022/01/06 10:44:09;;;;;;;7.20;3.42;;;;;;;;;;5033133;28;20657;-61
2022/01/06 10:46:38;;;;;;;6.18;2.88;;;;;;;;;;5032680;28;20054;-60
2022/01/06 10:49:07;;;;;;;8.07;3.55;;;;;;;;;;5032761;28;20060;-62
2022/01/06 10:51:36;;;;;;;6.88;3.30;;;;;;;;;;5032685;28;20049;-62
2022/01/06 10:54:10;;;;;;;6.47;3.33;;;;;;;;;;5032488;28;20049;-62
2022/01/06 10:56:37;;;;;;;5.32;2.88;;;;;;;;;;5032438;28;20049;-61
2022/01/06 10:59:03;;;;;;;5.80;3.17;;;;;;;;;;5032269;28;20041;-61
2022/01/06 11:01:33;;;;;;;7.50;3.58;;;;;;;;;;5032493;28;20052;-61
2022/01/06 11:04:00;;;;;;;5.30;2.97;;;;;;;;;;5032523;28;20045;-61
2022/01/06 11:06:27;;;;;;;7.10;3.30;;;;;;;;;;5032079;28;20049;-61
2022/01/06 11:08:55;;;;;;;7.22;3.72;;;;;;;;;;5032504;28;20054;-61
2022/01/06 11:11:43;;;;;;;7.57;3.70;;;;;;;;;;5032465;28;20055;-68
2022/01/06 11:14:14;;;;;;;7.50;3.30;;;;;;;;;;5032266;28;20438;-61
2022/01/06 11:16:43;;;;;;;7.82;3.80;;;;;;;;;;5032276;28;20092;-62
2022/01/06 11:19:12;;;;;;;8.77;4.40;;;;;;;;;;5032131;28;20045;-62
2022/01/06 11:21:42;;;;;;;8.32;4.10;;;;;;;;;;5032374;28;20050;-61
2022/01/06 11:24:15;;;;;;;7.57;3.85;;;;;;;;;;5032503;28;20415;-67
2022/01/06 11:26:56;;;;;;;7.45;3.70;;;;;;;;;;5032102;28;20053;-64
2022/01/06 11:29:25;;;;;;;;;;;;;;;;;;5032710;28;20049;-63
2022/01/06 11:31:52;;;;;;;12.18;4.75;;;;;;;;;;5055742;23;19921;-81
2022/01/06 11:34:20;;;;;;;6.32;3.88;;;;;;;;;;5042292;28;20080;-78
2022/01/06 11:36:50;;;;;;;8.48;4.30;;;;;;;;;;5041080;28;20042;-79
2022/01/06 11:39:23;;;;;;;6.50;3.53;;;;;;;;;;5042637;28;20054;-78
2022/01/06 11:41:53;;;;;;;8.93;4.35;;;;;;;;;;5042022;28;20056;-78
2022/01/06 11:44:22;;;;;;;7.13;4.00;;;;;;;;;;5040776;28;20050;-80
2022/01/06 11:46:51;;;;;;;7.57;3.92;;;;;;;;;;5039212;28;20050;-80
2022/01/06 11:49:31;;;;;;;7.03;4.10;;;;;;;;;;5039917;28;20060;-83
2022/01/06 11:52:09;;;;;;;6.90;4.03;;;;;;;;;;5040380;28;20541;-80
2022/01/06 11:54:50;;;;;;;10.35;4.20;;;;;;;;;;5038726;28;20500;-81
2022/01/06 11:57:35;;;;;;;7.15;3.75;;;;;;;;;;5037402;28;20073;-78
2022/01/06 12:00:23;;;;;;;8.15;4.00;;;;;;;;;;5039466;28;20511;-81
2022/01/06 12:03:01;;;;;;;9.85;5.00;;;;;;;;;;5038691;28;20052;-80
2022/01/06 12:05:29;;;;;;;7.47;4.22;;;;;;;;;;5039902;28;20122;-81
2022/01/06 12:07:56;;;;;;;7.30;3.88;;;;;;;;;;5038526;28;20055;-79
2022/01/06 12:10:22;;;;;;;7.70;4.03;;;;;;;;;;5041481;28;20053;-77
2022/01/06 12:12:59;;;;;;;6.88;3.92;;;;;;;;;;5042559;28;20053;-78
2022/01/06 12:15:26;;;;;;;7.38;4.20;;;;;;;;;;5048347;28;20068;-77
2022/01/06 12:17:53;;;;;;;8.05;4.25;;;;;;;;;;5049414;28;20104;-77
2022/01/06 12:20:22;;;;;;;6.88;4.10;;;;;;;;;;5046686;28;20045;-78
2022/01/06 12:22:49;;;;;;;7.15;3.60;;;;;;;;;;5038561;28;20061;-78
2022/01/06 12:25:16;;;;;;;7.07;4.22;;;;;;;;;;5036241;28;20100;-79
2022/01/06 12:27:48;;;;;;;6.80;3.85;;;;;;;;;;5036975;28;20432;-78
2022/01/06 12:30:18;;;;;;;5.82;3.30;;;;;;;;;;5034840;28;20054;-78
2022/01/06 12:32:58;;;;;;;6.90;4.03;;;;;;;;;;5035751;28;20089;-78
2022/01/06 12:35:41;;;;;;;9.65;4.38;;;;;;;;;;5037454;28;20107;-79
2022/01/06 12:38:09;;;;;;;6.47;4.07;;;;;;;;;;5037851;28;20128;-79
2022/01/06 12:40:39;;;;;;;7.75;3.72;;;;;;;;;;5038173;28;20119;-79
2022/01/06 12:43:19;;;;;;;7.03;3.67;;;;;;;;;;5040223;28;20042;-84
2022/01/06 12:46:02;;;;;;;7.13;3.70;;;;;;;;;;5042181;28;20508;-79
2022/01/06 12:48:31;;;;;;;6.78;3.40;;;;;;;;;;5043118;28;20068;-84
2022/01/06 12:50:58;;;;;;;8.10;3.75;;;;;;;;;;5041821;28;20055;-79
2022/01/06 12:53:27;;;;;;;7.97;3.22;;;;;;;;;;5043200;28;20067;-78
2022/01/06 12:55:54;;;;;;;7.78;3.35;;;;;;;;;;5043293;28;20107;-79
2022/01/06 12:58:27;;;;;;;6.53;3.47;;;;;;;;;;5043352;28;20440;-78
2022/01/06 13:00:57;;;;;;;10.40;3.85;;;;;;;;;;5046354;28;20056;-79
2022/01/06 13:03:32;;;;;;;9.07;4.40;;;;;;;;;;5047010;28;20053;-80
2022/01/06 13:06:00;;;;;;;9.23;3.28;;;;;;;;;;5047221;28;20041;-79
2022/01/06 13:08:28;;;;;;;7.03;3.50;;;;;;;;;;5049697;28;20056;-79
2022/01/06 13:11:06;;;;;;;10.07;3.75;;;;;;;;;;5051255;28;20072;-79
2022/01/06 13:13:47;;;;;;;7.72;3.50;;;;;;;;;;5050561;28;20045;-78
2022/01/06 13:16:17;;;;;;;8.68;4.22;;;;;;;;;;5048139;28;20049;-79
2022/01/06 13:18:56;;;;;;;7.32;3.42;;;;;;;;;;5044478;28;20492;-80
2022/01/06 13:21:27;;;;;;;6.78;3.45;;;;;;;;;;5043530;28;20103;-79
2022/01/06 13:23:55;;;;;;;7.80;3.10;;;;;;;;;;5043265;28;20472;-79
2022/01/06 13:26:23;;;;;;;6.10;3.05;;;;;;;;;;5044516;28;20045;-78
2022/01/06 13:28:58;;;;;;;10.85;4.15;;;;;;;;;;5045912;28;20048;-79
2022/01/06 13:31:26;;;;;;;8.80;3.42;;;;;;;;;;5044071;28;20045;-78
2022/01/06 13:33:55;;;;;;;7.55;3.10;;;;;;;;;;5049077;28;20077;-79
2022/01/06 13:36:32;;;;;;;7.45;3.38;;;;;;;;;;5048088;28;20056;-77
2022/01/06 13:39:10;;;;;;;7.63;3.30;;;;;;;;;;5041829;28;20053;-78
2022/01/06 13:41:52;;;;;;;5.35;2.92;;;;;;;;;;5043352;28;20056;-81
2022/01/06 13:44:20;;;;;;;5.22;2.55;;;;;;;;;;5043923;28;20061;-80
2022/01/06 13:47:06;;;;;;;6.53;3.22;;;;;;;;;;5044605;28;20057;-80
2022/01/06 13:52:24;;;;;;;6.95;2.88;;;;;;;;;;5044480;28;20430;-80
2022/01/06 13:54:56;;;;;;;6.53;2.78;;;;;;;;;;5044610;28;20056;-79
2022/01/06 13:57:23;;;;;;;7.88;3.17;;;;;;;;;;5045642;28;20084;-78
2022/01/06 13:59:50;;;;;;;5.68;3.17;;;;;;;;;;5043817;28;20084;-79
2022/01/06 14:02:19;;;;;;;7.53;3.30;;;;;;;;;;5045256;28;20057;-79
2022/01/06 14:04:46;;;;;;;7.75;3.47;;;;;;;;;;5046456;28;20496;-80
2022/01/06 14:07:14;;;;;;;6.22;3.20;;;;;;;;;;5041300;28;20045;-80
2022/01/06 14:09:42;;;;;;;5.95;3.25;;;;;;;;;;5041857;28;20087;-79
2022/01/06 14:12:10;;;;;;;9.95;5.13;;;;;;;;;;5041276;28;20107;-79
2022/01/06 14:14:37;;;;;;;9.93;4.70;;;;;;;;;;5038607;28;20053;-79
2022/01/06 14:17:05;;;;;;;6.97;3.53;;;;;;;;;;5040491;28;20053;-80
2022/01/06 14:19:38;;;;;;;8.43;4.45;;;;;;;;;;5040957;28;20069;-78
2022/01/06 14:22:05;;;;;;;8.98;3.92;;;;;;;;;;5051611;28;20053;-77
2022/01/06 14:24:33;;;;;;;7.35;3.10;;;;;;;;;;5047910;28;20412;-79
2022/01/06 14:27:02;;;;;;;10.43;4.18;;;;;;;;;;5043283;28;20132;-80
2022/01/06 14:29:29;;;;;;;16.35;8.15;;;;;;;;;;5044388;28;20049;-78
2022/01/06 14:31:56;;;;;;;7.60;3.75;;;;;;;;;;5042204;28;20045;-80
2022/01/06 14:34:23;;;;;;;8.20;3.38;;;;;;;;;;5042421;28;20141;-79
2022/01/06 14:36:52;;;;;;;7.63;3.33;;;;;;;;;;5041818;28;20060;-79
2022/01/06 14:39:19;;;;;;;7.55;3.35;;;;;;;;;;5042714;28;20201;-80
2022/01/06 14:41:46;;;;;;;7.43;3.08;;;;;;;;;;5040207;28;20045;-80
2022/01/06 14:44:12;;;;;;;10.23;3.20;;;;;;;;;;5041584;28;20045;-79
2022/01/06 14:46:40;;;;;;;7.30;3.70;;;;;;;;;;5042831;28;20076;-78
2022/01/06 14:49:07;;;;;;;7.07;3.30;;;;;;;;;;5044030;28;20053;-80
2022/01/06 14:51:34;;;;;;;18.20;3.88;;;;;;;;;;5040590;28;20119;-78
2022/01/06 14:54:02;;;;;;;5.60;3.10;;;;;;;;;;5044429;28;20416;-79
2022/01/06 14:56:29;;;;;;;8.00;3.58;;;;;;;;;;5046589;28;20095;-80
2022/01/06 14:58:55;;;;;;;5.43;3.28;;;;;;;;;;5046355;28;20424;-79